Flight Track Log - Related Links

Times and Time Zones

All times are in EST time to prevent confusion due to time zone crossing. See the SKQ45 flight status page for this flight to view local times or setup timezone preferences in your user account.

Time Position Orientation Groundspeed Altitude Reporting Facility
EST Latitude Longitude Course Direction KTS MPH feet Rate Location/Type
Tue 11:04:00 PM 37.1241 -88.8292 325° Northwest  Level FlightAware Approximate
Tue 11:06:58 PM 37.2047 -88.8708 325° Northwest 168 193 10,100  Level Memphis Center
Tue 11:07:58 PM 37.2508 -88.9144 323° Northwest 200 230 10,100 -50 Level Memphis Center
Tue 11:08:59 PM 37.2989 -88.9589 324° Northwest 212 244 10,000  Descending Memphis Center
Tue 11:10:00 PM 37.3472 -89.0056 322° Northwest 217 250 10,100 49 Climbing Memphis Center
Tue 11:11:00 PM 37.3715 -89.0634 325° Northwest  Level FlightAware Approximate
Tue 11:11:01 PM 37.3964 -89.0519 323° Northwest 220 253 10,100  Level Memphis Center
Tue 11:12:00 PM 37.4089 -89.0968 325° Northwest  Level FlightAware Approximate
Tue 11:12:01 PM 37.4464 -89.0986 323° Northwest 222 255 10,100  Level Memphis Center
Tue 11:13:02 PM 37.4942 -89.1458 322° Northwest 219 252 9,900 -49 Descending Memphis Center
Tue 11:14:03 PM 37.5436 -89.1925 323° Northwest 220 253 10,000 49 Climbing Memphis Center
Tue 11:15:04 PM 37.5917 -89.2392 322° Northwest 220 253 10,000 -49 Level Memphis Center
Tue 11:16:05 PM 37.6400 -89.2850 323° Northwest 219 252 9,900  Descending Memphis Center
Tue 11:17:05 PM 37.6883 -89.3317 323° Northwest 218 251 10,000 50 Climbing Memphis Center
Tue 11:18:06 PM 37.7367 -89.3789 322° Northwest 219 252 10,000 -49 Level Memphis Center
Tue 11:19:07 PM 37.7844 -89.4242 323° Northwest 217 250 9,900 -49 Descending Memphis Center
Tue 11:20:08 PM 37.8414 -89.4800 322° Northwest 216 249 9,900 49 Level Memphis Center
Tue 11:21:09 PM 37.8900 -89.5256 324° Northwest 217 250 10,000  Climbing Memphis Center
Tue 11:22:09 PM 37.9364 -89.5719 322° Northwest 215 247 9,900 -50 Descending Memphis Center
Tue 11:23:10 PM 37.9836 -89.6167 323° Northwest 213 245 9,900  Level Memphis Center
Tue 11:24:11 PM 38.0308 -89.6631 322° Northwest 213 245 9,900 94 Level Memphis Center
Tue 11:25:17 PM 38.0817 -89.7136 322° Northwest 212 244 10,100 47 Climbing Kansas City Center
Tue 11:26:19 PM 38.1236 -89.7533 323° Northwest 215 247 10,000 -397 Descending Kansas City Center
Tue 11:27:18 PM 38.1731 -89.8008 323° Northwest 220 253 9,300 -942 Descending Kansas City Center
Tue 11:28:20 PM 38.2272 -89.8464 327° Northwest 231 266 8,100 -1,171 Descending Kansas City Center
Tue 11:29:21 PM 38.2800 -89.8917 326° Northwest 231 266 6,900 -1,210 Descending Kansas City Center
Tue 11:30:19 PM 38.3333 -89.9369 326° Northwest 231 266 5,700 -992 Descending Kansas City Center
Tue 11:31:22 PM 38.3867 -89.9850 325° Northwest 211 243 4,900 -341 Descending Kansas City Center
Tue 11:32:22 PM 38.4297 -90.0228 326° Northwest 196 226 5,000  Climbing Kansas City Center
Tue 11:33:23 PM 38.4753 -90.0628 325° Northwest 196 226 4,900 -504 Descending Kansas City Center
Tue 11:34:21 PM 38.5228 -90.1039 326° Northwest 201 231 4,000 -446 Descending Kansas City Center
Tue 11:35:24 PM 38.5694 -90.1453 325° Northwest 204 235 4,000 -49 Level Kansas City Center
Tue 11:36:24 PM 38.6078 -90.1778 326° Northwest 185 213 3,900 -492 Descending Kansas City Center
Tue 11:37:26 PM 38.6442 -90.2081 327° Northwest 168 193 3,000 -787 Descending Kansas City Center
Tue 11:38:26 PM 38.6825 -90.2394 327° Northwest 165 190 2,300 -555 Descending Kansas City Center
Tue 11:39:25 PM 38.7072 -90.2767 310° West 156 180 1,900 -488 Descending Kansas City Center
Tue 11:40:29 PM 38.7250 -90.3111 303° West 133 153 1,300 -634 Descending Kansas City Center
Tue 11:41:28 PM 38.7394 -90.3417 301° West 116 133 600 -712 Descending Kansas City Center

Login

Don't have an account? Register now (free) for customized features, flight alerts, and more!